MMPN 090042Z 00000KT 15SM SKC 22/12 A3018 RMK HZY= 090042

MMPN 082355Z 17006KT 15SM SKC 23/12 A3016 RMK HZY= 082356

MMPN 082242Z 20008KT 15SM SKC 24/09 A3015 RMK HZY SC= 082244

MMPN 082141Z 20007KT 15SM SKC 25/10 A3015 RMK HZY CI= 082142

MMPN 082040Z 16010KT 15SM SKC 25/12 A3016 RMK HZY= 082041

MMPN 082011Z RTD 14007KT 15SM SKC 24/12 A3016 RMK HZY CI= 082011

MMPN 081844Z 18010KT 10SM BKN280 25/08 A3020 RMK 8/001= 081846

MMPN 081741Z 18008KT 10SM BKN280 24/07 A3024 RMK 8/001= 081742

MMPN 081640Z 00000KT 10SM BKN280 23/12 A3026 RMK 8/001= 081640

MMPN 081550Z 00000KT 10SM BKN280 20/11 A3026 RMK 8/001= 081552

MMPN 081446Z 00000KT 10SM BKN280 15/11 A3025 RMK 8/001= 081447

MMPN 081340Z 00000KT 10SM BKN280 12/09 A3023 RMK 8/001= 081340

MMPN 081240Z 00000KT 10SM BKN280 11/09 A3022 RMK 8/001 RTS= 081240

MMPN 080040Z 00000KT 15SM SKC 21/13 A3016= 080042

MMPN 072346Z 00000KT 15SM SKC 23/12 A3015= 072347

MMPN 072240Z 11008KT 15SM SKC 24/11 A3014 RMK SC= 072242

MMPN 072140Z 18010KT 15SM SKC 24/12 A3013 RMK SC= 072140

MMPN 072041Z 18010KT 15SM SKC 24/12 A3014 RMK SC= 072042

MMPN 071940Z 18010KT 15SM SKC 24/13 A3015 RMK SC= 071940

MMPN 071844Z 00000KT 20SM SKC 25/09 A3019 RMK SC= 071844

MMPN 071740Z 00000KT 20SM SKC 25/10 A3022= 071741

MMPN 071640Z 00000KT 20SM SKC 24/10 A3023= 071640

MMPN 071543Z 00000KT 20SM SKC 21/13 A3024= 071543

MMPN 071440Z 00000KT 20SM SKC 15/11 A3022 RMK CI= 071441

MMPN 071341Z 00000KT 20SM SKC 12/09 A3020 RMK CI= 071341

MMPN 071245Z 00000KT 15SM SKC 11/09 A3018 RMK CI RTS= 071246

MMPN 070040Z 00000KT 15SM OVC290 21/12 A3021 RMK 8/001 HZY= 070040

MMPN 062342Z 00000KT 15SM BKN290 22/11 A3020 RMK 8/001 HZY TCU= 062342

MMPN 062305Z RTD 20006KT 15SM FEW290 23/11 A3020 RMK 8/001 HZY TCU= 062305

MMPN 062145Z 19008KT 15SM SKC 23/11 A3018 RMK HZY CU SC= 062145

MMPN 062040Z 12006KT 15SM SKC 24/11 A3019 RMK HZY TCU CI= 062041

MMPN 061940Z 02008KT 15SM SKC 23/11 A3021 RMK HZY CU CI= 061940

MMPN 061853Z 21008KT 15SM SKC 22/13 A3023 RMK HZY CU CI= 061854

MMPN 061741Z 00000KT 15SM SKC 23/11 A3026 RMK HZY CU CI= 061742

MMPN 061640Z 00000KT 15SM SKC 24/12 A3028 RMK HZY CI= 061640

MMPN 061540Z 00000KT 15SM SKC 20/14 A3028 RMK HZY CI= 061540

MMPN 061440Z 00000KT 15SM SKC 15/12 A3027 RMK HZY CI= 061440

MMPN 061240Z 00000KT 15SM SKC 11/09 A3024 RMK HZY MIFG CI RTS= 061240